createdAt,value
2018-03-19T00:02:13.020Z,2.28
2018-03-19T00:04:42.235Z,2.19
2018-03-19T00:07:11.309Z,2.26
2018-03-19T00:09:41.165Z,2.17
2018-03-19T00:12:10.278Z,2.18
2018-03-19T00:14:39.365Z,2.20
2018-03-19T00:17:08.483Z,2.21
2018-03-19T00:19:37.574Z,2.21
2018-03-19T00:22:06.669Z,2.26
2018-03-19T00:24:35.758Z,2.20
2018-03-19T00:27:04.864Z,2.19
2018-03-19T00:29:33.989Z,2.17
2018-03-19T00:32:03.842Z,2.10
2018-03-19T00:34:32.950Z,2.08
2018-03-19T00:37:02.052Z,2.03
2018-03-19T00:39:31.161Z,2.03
2018-03-19T00:42:00.253Z,1.97
2018-03-19T00:44:29.379Z,2.11
2018-03-19T00:46:59.234Z,2.11
2018-03-19T00:49:28.350Z,2.16
2018-03-19T00:51:57.458Z,2.19
2018-03-19T00:54:26.558Z,2.25
2018-03-19T00:56:55.648Z,2.21
2018-03-19T00:59:24.769Z,2.08
2018-03-19T01:01:54.621Z,1.94
2018-03-19T01:04:24.504Z,1.97
2018-03-19T01:06:54.371Z,1.98
2018-03-19T01:09:23.449Z,2.01
2018-03-19T01:11:52.567Z,2.13
2018-03-19T01:14:21.655Z,2.05
2018-03-19T01:16:50.766Z,2.07
2018-03-19T01:19:19.857Z,2.07
2018-03-19T01:21:48.995Z,2.13
2018-03-19T01:24:18.851Z,2.08
2018-03-19T01:26:47.969Z,2.01
2018-03-19T01:29:17.046Z,2.13
2018-03-19T01:31:46.151Z,2.10
2018-03-19T01:34:15.248Z,2.14
2018-03-19T01:36:44.326Z,2.22
2018-03-19T01:39:13.439Z,2.28
2018-03-19T01:41:42.526Z,2.34
2018-03-19T01:44:12.415Z,2.29
2018-03-19T01:46:41.503Z,2.20
2018-03-19T01:49:10.612Z,2.20
2018-03-19T01:51:39.696Z,2.22
2018-03-19T01:54:08.798Z,2.19
2018-03-19T01:56:37.894Z,2.22
2018-03-19T01:59:07.017Z,2.17
2018-03-19T02:01:36.107Z,2.21
2018-03-19T02:04:05.226Z,2.18
2018-03-19T02:06:34.328Z,2.13
2018-03-19T02:09:03.430Z,2.05
2018-03-19T02:11:32.528Z,2.00
2018-03-19T02:14:01.618Z,2.03
2018-03-19T02:16:30.722Z,2.06
2018-03-19T02:19:00.626Z,2.01
2018-03-19T02:21:29.713Z,2.11
2018-03-19T02:23:58.810Z,2.12
2018-03-19T02:26:27.922Z,2.02
2018-03-19T02:28:57.011Z,2.11
2018-03-19T02:31:26.118Z,2.08
2018-03-19T02:33:55.198Z,2.00
2018-03-19T02:36:24.318Z,2.01
2018-03-19T02:38:54.177Z,1.93
2018-03-19T02:41:23.254Z,2.02
2018-03-19T02:43:52.370Z,2.03
2018-03-19T02:46:21.481Z,1.96
2018-03-19T02:48:50.578Z,1.91
2018-03-19T02:51:19.695Z,2.02
2018-03-19T02:53:48.811Z,2.01
2018-03-19T02:56:19.438Z,1.98
2018-03-19T02:58:49.334Z,1.98
2018-03-19T03:01:18.424Z,2.04
2018-03-19T03:03:47.535Z,1.99
2018-03-19T03:06:16.666Z,2.02
2018-03-19T03:08:45.771Z,2.03
2018-03-19T03:11:14.873Z,1.99
2018-03-19T03:13:43.962Z,2.01
2018-03-19T03:16:13.078Z,2.00
2018-03-19T03:18:42.196Z,2.04
2018-03-19T03:21:11.352Z,1.86
2018-03-19T03:23:40.406Z,1.76
2018-03-19T03:26:10.262Z,1.75
2018-03-19T03:28:39.377Z,1.84
2018-03-19T03:31:08.466Z,1.83
2018-03-19T03:33:37.562Z,1.88
2018-03-19T03:36:06.676Z,1.91
2018-03-19T03:38:35.770Z,1.91
2018-03-19T03:41:04.857Z,1.91
2018-03-19T03:43:33.961Z,1.90
2018-03-19T03:46:03.063Z,1.86
2018-03-19T03:48:32.162Z,1.82
2018-03-19T03:51:01.268Z,1.86
2018-03-19T03:53:30.385Z,1.88
2018-03-19T03:56:00.261Z,1.91
2018-03-19T03:58:29.350Z,1.82
2018-03-19T04:00:58.476Z,1.83
2018-03-19T04:03:27.556Z,1.86
2018-03-19T04:05:56.658Z,1.87
2018-03-19T04:08:25.745Z,1.90
2018-03-19T04:10:54.876Z,1.89
2018-03-19T04:13:24.719Z,1.89
2018-03-19T04:15:53.827Z,1.85
2018-03-19T04:18:22.910Z,1.72
2018-03-19T04:20:52.018Z,1.80
2018-03-19T04:23:21.119Z,1.81
2018-03-19T04:25:50.202Z,1.80
2018-03-19T04:28:19.323Z,1.70
2018-03-19T04:30:48.395Z,1.72
2018-03-19T04:33:17.504Z,1.74
2018-03-19T04:35:46.627Z,1.79
2018-03-19T04:38:15.729Z,1.79
2018-03-19T04:40:44.830Z,1.74
2018-03-19T04:43:13.937Z,1.76
2018-03-19T04:45:43.786Z,1.78
2018-03-19T04:48:12.886Z,1.73
2018-03-19T04:50:41.982Z,1.73
2018-03-19T04:53:11.098Z,1.64
2018-03-19T04:55:40.193Z,1.62
2018-03-19T04:58:09.307Z,1.68
2018-03-19T05:00:38.415Z,1.65
2018-03-19T05:03:07.517Z,1.70
2018-03-19T05:05:36.619Z,1.72
2018-03-19T05:08:06.471Z,1.63
2018-03-19T05:10:35.576Z,1.67
2018-03-19T05:13:04.667Z,1.68
2018-03-19T05:15:33.783Z,1.58
2018-03-19T05:18:02.879Z,1.61
2018-03-19T05:20:31.965Z,1.57
2018-03-19T05:23:01.074Z,1.59
2018-03-19T05:25:30.167Z,1.65
2018-03-19T05:27:59.281Z,1.63
2018-03-19T05:30:28.370Z,1.59
2018-03-19T05:32:57.477Z,1.50
2018-03-19T05:35:26.595Z,1.60
2018-03-19T05:37:56.475Z,1.56
2018-03-19T05:40:25.602Z,1.57
2018-03-19T05:42:55.470Z,1.52
2018-03-19T05:45:24.574Z,1.60
2018-03-19T05:47:53.682Z,1.56
2018-03-19T05:50:22.777Z,1.62
2018-03-19T05:52:51.892Z,1.67
2018-03-19T05:55:20.980Z,1.63
2018-03-19T05:57:50.087Z,1.64
2018-03-19T06:00:19.978Z,1.65
2018-03-19T06:02:49.081Z,1.65
2018-03-19T06:05:18.193Z,1.56
2018-03-19T06:07:47.277Z,1.55
2018-03-19T06:10:16.399Z,1.70
2018-03-19T06:12:46.263Z,1.79
2018-03-19T06:15:15.362Z,1.74
2018-03-19T06:17:44.452Z,1.82
2018-03-19T06:20:13.553Z,1.77
2018-03-19T06:22:42.663Z,1.79
2018-03-19T06:25:11.796Z,1.80
2018-03-19T06:27:41.643Z,1.90
2018-03-19T06:30:10.746Z,1.75
2018-03-19T06:32:39.848Z,1.72
2018-03-19T06:35:08.974Z,1.78
2018-03-19T06:37:38.071Z,1.78
2018-03-19T06:40:07.936Z,1.80
2018-03-19T06:42:37.065Z,1.73
2018-03-19T06:45:06.177Z,1.87
2018-03-19T06:47:35.288Z,1.86
2018-03-19T06:50:04.393Z,1.82
2018-03-19T06:52:34.302Z,1.78
2018-03-19T06:55:03.408Z,1.72
2018-03-19T06:57:34.112Z,1.75
2018-03-19T07:00:03.241Z,1.84
2018-03-19T07:02:33.086Z,1.89
2018-03-19T07:05:02.204Z,2.01
2018-03-19T07:07:32.110Z,1.92
2018-03-19T07:10:01.203Z,2.04
2018-03-19T07:12:30.317Z,2.06
2018-03-19T07:14:59.461Z,2.06
2018-03-19T07:17:28.560Z,2.08
2018-03-19T07:19:57.675Z,2.00
2018-03-19T07:22:26.779Z,2.04
2018-03-19T07:24:55.882Z,2.15
2018-03-19T07:27:24.966Z,2.15
2018-03-19T07:29:54.098Z,2.25
2018-03-19T07:32:23.201Z,2.02
2018-03-19T07:34:52.311Z,2.13
2018-03-19T07:37:22.219Z,2.16
2018-03-19T07:39:51.311Z,2.04
2018-03-19T07:42:21.161Z,2.12
2018-03-19T07:44:50.284Z,2.08
2018-03-19T07:47:19.378Z,2.16
2018-03-19T07:49:48.478Z,2.11
2018-03-19T07:52:18.449Z,1.98
2018-03-19T07:54:47.572Z,2.17
2018-03-19T07:57:17.111Z,2.10
2018-03-19T07:59:46.189Z,2.27
2018-03-19T08:02:15.300Z,2.24
2018-03-19T08:04:44.407Z,2.21
2018-03-19T08:07:13.494Z,2.22
2018-03-19T08:09:42.623Z,2.34
2018-03-19T08:12:12.488Z,2.28
2018-03-19T08:14:41.587Z,2.44
2018-03-19T08:17:10.678Z,2.33
2018-03-19T08:19:39.816Z,2.44
2018-03-19T08:22:08.918Z,2.54
2018-03-19T08:24:38.799Z,2.40
2018-03-19T08:27:07.875Z,2.45
2018-03-19T08:29:36.993Z,2.57
2018-03-19T08:32:06.115Z,2.54
2018-03-19T08:34:35.206Z,2.51
2018-03-19T08:37:05.078Z,2.59
2018-03-19T08:39:34.246Z,2.85
2018-03-19T08:42:03.349Z,2.99
2018-03-19T08:44:33.243Z,2.85
2018-03-19T08:47:03.145Z,2.90
2018-03-19T08:49:32.226Z,2.97
2018-03-19T08:52:01.347Z,2.98
2018-03-19T08:54:30.418Z,2.94
2018-03-19T08:56:59.550Z,3.11
2018-03-19T08:59:29.426Z,3.04
2018-03-19T09:01:58.533Z,3.16
2018-03-19T09:04:27.619Z,3.20
2018-03-19T09:06:56.710Z,3.15
2018-03-19T09:09:25.816Z,3.06
2018-03-19T09:11:54.934Z,3.22
2018-03-19T09:14:24.818Z,3.41
2018-03-19T09:16:53.925Z,3.46
2018-03-19T09:19:23.042Z,3.38
2018-03-19T09:21:52.890Z,3.27
2018-03-19T09:24:21.988Z,3.26
2018-03-19T09:26:51.099Z,3.27
2018-03-19T09:29:20.201Z,3.32
2018-03-19T09:31:49.350Z,3.39
2018-03-19T09:34:19.198Z,3.33
2018-03-19T09:36:48.316Z,3.33
2018-03-19T09:39:17.393Z,3.38
2018-03-19T09:41:46.511Z,3.30
2018-03-19T09:44:15.614Z,3.36
2018-03-19T09:46:44.702Z,3.32
2018-03-19T09:49:13.815Z,3.27
2018-03-19T09:51:42.918Z,3.40
2018-03-19T09:54:12.826Z,3.37
2018-03-19T09:56:41.931Z,3.32
2018-03-19T09:59:11.025Z,3.52
2018-03-19T10:01:40.154Z,3.40
2018-03-19T10:04:09.265Z,3.62
2018-03-19T10:06:38.390Z,3.60
2018-03-19T10:09:07.497Z,3.50
2018-03-19T10:11:36.604Z,3.57
2018-03-19T10:14:06.466Z,3.49
2018-03-19T10:16:35.578Z,3.61
2018-03-19T10:19:04.667Z,3.68
2018-03-19T10:21:33.813Z,3.90
2018-03-19T10:24:02.910Z,3.82
2018-03-19T10:26:32.774Z,3.53
2018-03-19T10:29:01.890Z,3.72
2018-03-19T10:31:31.042Z,3.96
2018-03-19T10:34:00.165Z,3.96
2018-03-19T10:36:29.274Z,4.03
2018-03-19T10:38:58.405Z,4.09
2018-03-19T10:41:28.264Z,4.07
2018-03-19T10:43:57.410Z,4.01
2018-03-19T10:46:26.501Z,4.08
2018-03-19T10:48:55.626Z,4.19
2018-03-19T10:51:25.499Z,4.18
2018-03-19T10:53:54.609Z,4.32
2018-03-19T10:56:23.715Z,4.42
2018-03-19T10:58:52.826Z,4.41
2018-03-19T11:01:28.300Z,4.43
2018-03-19T11:04:02.070Z,4.20
2018-03-19T11:19:59.328Z,4.68
2018-03-19T11:22:28.368Z,4.64
2018-03-19T11:24:58.378Z,4.63
2018-03-19T11:27:27.490Z,4.75
2018-03-19T11:29:56.618Z,4.92
2018-03-19T11:32:26.483Z,4.90
2018-03-19T11:34:55.577Z,4.85
2018-03-19T11:37:24.684Z,4.90
2018-03-19T11:39:54.665Z,4.89
2018-03-19T11:42:23.776Z,4.79
2018-03-19T11:44:53.642Z,4.75
2018-03-19T11:47:23.614Z,4.83
2018-03-19T11:49:52.703Z,4.61
2018-03-19T11:52:21.777Z,4.44
2018-03-19T11:54:50.900Z,4.46
2018-03-19T11:57:20.020Z,4.52
2018-03-19T11:59:49.122Z,4.35
2018-03-19T12:02:18.244Z,4.21
2018-03-19T12:04:48.129Z,4.21
2018-03-19T12:07:17.226Z,4.21
2018-03-19T12:09:46.342Z,4.29
2018-03-19T12:12:15.445Z,4.37
2018-03-19T12:14:45.305Z,4.30
2018-03-19T12:17:14.414Z,4.32
2018-03-19T12:19:43.492Z,4.27
2018-03-19T12:22:12.611Z,4.23
2018-03-19T12:24:41.840Z,4.37
2018-03-19T12:27:10.945Z,4.20
2018-03-19T12:29:40.832Z,4.28
2018-03-19T12:32:09.909Z,4.18
2018-03-19T12:34:39.024Z,4.28
2018-03-19T12:37:08.126Z,4.37
2018-03-19T12:39:37.240Z,4.45
2018-03-19T12:42:07.113Z,4.57
2018-03-19T12:44:36.223Z,4.63
2018-03-19T12:47:05.331Z,4.46
2018-03-19T12:49:34.447Z,4.30
2018-03-19T12:52:04.335Z,4.44
2018-03-19T12:54:33.440Z,4.55
2018-03-19T12:57:02.564Z,4.50
2018-03-19T12:59:31.669Z,4.44
2018-03-19T13:02:00.784Z,4.44
2018-03-19T13:04:29.901Z,4.46
2018-03-19T13:06:58.994Z,4.55
2018-03-19T13:09:28.110Z,4.56
2018-03-19T13:11:57.208Z,4.46
2018-03-19T13:14:26.310Z,4.41
2018-03-19T13:16:55.418Z,4.41
2018-03-19T13:19:24.508Z,4.45
2018-03-19T13:21:54.384Z,4.51
2018-03-19T13:24:23.478Z,4.45
2018-03-19T13:26:52.632Z,4.43
2018-03-19T13:29:22.517Z,4.46
2018-03-19T13:31:51.636Z,4.57
2018-03-19T13:34:21.501Z,4.70
2018-03-19T13:36:50.635Z,4.75
2018-03-19T13:39:19.714Z,4.64
2018-03-19T13:41:48.839Z,4.54
2018-03-19T13:44:18.703Z,4.53
2018-03-19T13:46:47.821Z,4.59
2018-03-19T13:49:16.925Z,4.66
2018-03-19T13:51:46.044Z,4.73
2018-03-19T13:54:15.942Z,4.46
2018-03-19T13:56:45.035Z,4.44
2018-03-19T13:59:14.155Z,4.55
2018-03-19T14:01:44.012Z,4.48
2018-03-19T14:04:13.127Z,4.28
2018-03-19T14:06:42.206Z,4.42
2018-03-19T14:09:11.355Z,4.31
2018-03-19T14:11:41.213Z,4.31
2018-03-19T14:14:10.321Z,4.23
2018-03-19T14:16:40.939Z,4.38
2018-03-19T14:19:10.089Z,4.55
2018-03-19T14:21:39.950Z,4.59
2018-03-19T14:24:09.052Z,4.55
2018-03-19T14:26:38.169Z,4.57
2018-03-19T14:29:08.042Z,4.58
2018-03-19T14:31:37.126Z,4.56
2018-03-19T14:34:06.323Z,4.56
2018-03-19T14:36:35.381Z,4.55
2018-03-19T14:39:04.505Z,4.54
2018-03-19T14:41:33.656Z,4.57
2018-03-19T14:44:03.529Z,4.59
2018-03-19T14:46:32.627Z,4.51
2018-03-19T14:49:01.750Z,4.57
2018-03-19T14:51:30.874Z,4.54
2018-03-19T14:54:00.009Z,4.43
2018-03-19T14:56:29.144Z,4.37
2018-03-19T14:58:58.273Z,4.34
2018-03-19T15:01:28.169Z,4.40
2018-03-19T15:03:58.251Z,4.25
2018-03-19T15:06:27.376Z,4.40
2018-03-19T15:08:56.485Z,4.43
2018-03-19T15:11:25.617Z,4.43
2018-03-19T15:13:54.739Z,4.41
2018-03-19T15:16:23.899Z,4.44
2018-03-19T15:18:53.781Z,4.44
2018-03-19T15:21:22.893Z,4.45
2018-03-19T15:23:53.935Z,4.32
2018-03-19T15:26:23.067Z,4.40
2018-03-19T15:28:52.182Z,4.31
2018-03-19T15:31:21.325Z,4.27
2018-03-19T15:33:50.443Z,4.26
2018-03-19T15:36:20.307Z,4.18
2018-03-19T15:38:49.440Z,4.24
2018-03-19T15:41:18.556Z,4.28
2018-03-19T15:43:48.854Z,4.25
2018-03-19T15:46:17.959Z,4.18
2018-03-19T15:48:47.859Z,4.21
2018-03-19T15:51:16.970Z,4.23
2018-03-19T15:53:46.841Z,4.28
2018-03-19T15:56:15.971Z,4.33
2018-03-19T15:58:45.090Z,4.28
2018-03-19T16:01:15.605Z,4.25
2018-03-19T16:03:44.684Z,4.31
2018-03-19T16:06:13.811Z,4.30
2018-03-19T16:08:44.715Z,4.38
2018-03-19T16:11:13.876Z,4.26
2018-03-19T16:13:43.894Z,4.09
2018-03-19T16:16:13.041Z,4.13
2018-03-19T16:18:42.855Z,4.16
2018-03-19T16:21:12.015Z,4.23
2018-03-19T16:23:41.127Z,4.37
2018-03-19T16:26:12.006Z,4.42
2018-03-19T16:28:42.737Z,4.49
2018-03-19T16:31:12.593Z,4.42
2018-03-19T16:33:42.563Z,4.51
2018-03-19T16:36:12.432Z,4.56
2018-03-19T16:38:41.556Z,4.57
2018-03-19T16:41:12.162Z,4.53
2018-03-19T16:43:41.294Z,4.53
2018-03-19T16:46:10.408Z,4.56
2018-03-19T16:48:40.302Z,4.56
2018-03-19T16:51:09.395Z,4.47
2018-03-19T16:53:38.508Z,4.40
2018-03-19T16:56:08.406Z,4.30
2018-03-19T16:58:37.500Z,4.25
2018-03-19T17:01:06.628Z,4.38
2018-03-19T17:03:35.747Z,4.48
2018-03-19T17:06:04.921Z,4.50
2018-03-19T17:08:33.996Z,4.41
2018-03-19T17:11:03.892Z,4.50
2018-03-19T17:13:32.999Z,4.54
2018-03-19T17:16:02.146Z,4.57
2018-03-19T17:18:31.252Z,4.51
2018-03-19T17:21:00.424Z,4.49
2018-03-19T17:23:29.548Z,4.38
2018-03-19T17:26:00.824Z,4.24
2018-03-19T17:28:29.937Z,4.21
2018-03-19T17:30:59.828Z,4.10
2018-03-19T17:33:28.938Z,4.03
2018-03-19T17:35:58.055Z,4.04
2018-03-19T17:38:27.967Z,4.04
2018-03-19T17:40:57.831Z,4.11
2018-03-19T17:43:26.981Z,4.16
2018-03-19T17:45:56.838Z,4.04
2018-03-19T17:48:25.987Z,4.03
2018-03-19T17:50:55.918Z,4.00
2018-03-19T17:53:25.778Z,4.01
2018-03-19T18:08:44.306Z,3.95
2018-03-19T18:11:13.447Z,3.96
2018-03-19T18:13:43.327Z,3.95
2018-03-19T18:16:12.457Z,3.94
2018-03-19T18:18:43.235Z,3.94
2018-03-19T18:21:12.381Z,3.92
2018-03-19T18:23:41.502Z,4.01
2018-03-19T18:26:11.386Z,4.14
2018-03-19T18:28:40.494Z,4.11
2018-03-19T18:31:09.622Z,4.14
2018-03-19T18:33:39.637Z,4.02
2018-03-19T18:36:08.736Z,4.01
2018-03-19T18:38:37.848Z,3.91
2018-03-19T18:41:06.957Z,3.84
2018-03-19T18:43:36.058Z,3.82
2018-03-19T18:46:05.167Z,3.84
2018-03-19T18:48:34.296Z,3.89
2018-03-19T18:51:04.180Z,4.04
2018-03-19T18:53:34.809Z,4.01
2018-03-19T18:56:04.675Z,3.94
2018-03-19T18:58:34.558Z,3.96
2018-03-19T19:01:03.678Z,4.02
2018-03-19T19:03:32.814Z,3.98
2018-03-19T19:06:02.700Z,3.97
2018-03-19T19:08:31.803Z,3.86
2018-03-19T19:11:00.920Z,3.94
2018-03-19T19:13:30.019Z,3.85
2018-03-19T19:15:59.159Z,3.72
2018-03-19T19:18:29.027Z,3.82
2018-03-19T19:20:58.146Z,3.81
2018-03-19T19:23:27.256Z,3.89
2018-03-19T19:25:57.144Z,3.87
2018-03-19T19:28:26.287Z,3.93
2018-03-19T19:30:56.177Z,4.01
2018-03-19T19:33:25.287Z,3.94
2018-03-19T19:35:55.170Z,3.88
2018-03-19T19:38:24.277Z,3.89
2018-03-19T19:40:53.411Z,3.86
2018-03-19T19:43:22.524Z,3.70
2018-03-19T19:45:51.640Z,3.88
2018-03-19T19:50:49.024Z,3.79
2018-03-19T19:53:18.156Z,3.84
2018-03-19T19:55:48.053Z,3.87
2018-03-19T19:58:18.562Z,3.91
2018-03-19T20:00:47.679Z,3.75
2018-03-19T20:03:16.804Z,3.64
2018-03-19T20:05:46.699Z,3.56
2018-03-19T20:08:15.806Z,3.48
2018-03-19T20:10:45.674Z,3.32
2018-03-19T20:13:15.535Z,3.33
2018-03-19T20:15:44.678Z,3.26
2018-03-19T20:18:13.795Z,3.25
2018-03-19T20:20:42.928Z,3.24
2018-03-19T20:23:12.844Z,3.27
2018-03-19T20:25:42.759Z,3.26
2018-03-19T20:28:13.349Z,3.23
2018-03-19T20:30:42.499Z,3.22
2018-03-19T20:33:11.591Z,3.32
2018-03-19T20:35:40.713Z,3.32
2018-03-19T20:38:09.821Z,3.30
2018-03-19T20:40:38.957Z,3.20
2018-03-19T20:43:08.065Z,3.07
2018-03-19T20:45:37.209Z,3.03
2018-03-19T20:48:06.303Z,3.08
2018-03-19T20:50:35.454Z,3.13
2018-03-19T20:53:05.350Z,3.10
2018-03-19T20:55:34.451Z,2.96
2018-03-19T20:58:04.414Z,2.83
2018-03-19T21:00:33.542Z,2.74
2018-03-19T21:03:02.710Z,2.64
2018-03-19T21:05:31.811Z,2.56
2018-03-19T21:08:01.714Z,2.51
2018-03-19T21:10:30.862Z,2.46
2018-03-19T21:12:59.967Z,2.43
2018-03-19T21:15:29.070Z,2.39
2018-03-19T21:17:58.957Z,2.36
2018-03-19T21:20:28.071Z,2.31
2018-03-19T21:22:58.014Z,2.41
2018-03-19T21:25:27.104Z,2.45
2018-03-19T21:27:56.214Z,2.51
2018-03-19T21:30:25.356Z,2.45
2018-03-19T21:32:54.462Z,2.40
2018-03-19T21:35:23.564Z,2.35
2018-03-19T21:37:52.665Z,2.33
2018-03-19T21:40:22.543Z,2.31
2018-03-19T21:42:51.627Z,2.36
2018-03-19T21:45:20.737Z,2.53
2018-03-19T21:47:49.872Z,2.65
2018-03-19T21:50:18.982Z,2.68
2018-03-19T21:52:48.108Z,2.81
2018-03-19T21:55:17.218Z,2.76
2018-03-19T21:57:46.346Z,2.84
2018-03-19T22:00:15.450Z,2.84
2018-03-19T22:02:45.366Z,2.84
2018-03-19T22:05:14.442Z,2.87
2018-03-19T22:07:43.539Z,2.83
2018-03-19T22:10:12.673Z,2.88
2018-03-19T22:12:42.526Z,2.91
2018-03-19T22:15:11.639Z,2.93
2018-03-19T22:17:40.741Z,3.00
2018-03-19T22:20:09.842Z,2.99
2018-03-19T22:22:38.977Z,2.98
2018-03-19T22:25:08.088Z,3.09
2018-03-19T22:27:37.192Z,3.08
2018-03-19T22:30:06.278Z,2.86
2018-03-19T22:32:35.385Z,2.93
2018-03-19T22:35:04.511Z,2.95
2018-03-19T22:37:33.615Z,2.98
2018-03-19T22:40:02.706Z,2.89
2018-03-19T22:42:31.815Z,2.86
2018-03-19T22:45:01.676Z,2.85
2018-03-19T22:47:30.780Z,2.84
2018-03-19T22:49:59.881Z,2.83
2018-03-19T22:52:28.999Z,2.71
2018-03-19T22:54:58.093Z,2.72
2018-03-19T22:57:27.182Z,2.66
2018-03-19T22:59:56.303Z,2.63
2018-03-19T23:02:25.401Z,2.63
2018-03-19T23:18:35.213Z,2.67
2018-03-19T23:21:04.311Z,2.64
2018-03-19T23:23:33.418Z,2.50
2018-03-19T23:26:02.535Z,2.49
2018-03-19T23:28:32.382Z,2.42
2018-03-19T23:31:01.506Z,2.42
2018-03-19T23:33:30.635Z,2.38
2018-03-19T23:35:59.699Z,2.29
2018-03-19T23:38:28.795Z,2.27
2018-03-19T23:40:58.664Z,2.15
2018-03-19T23:43:27.764Z,2.06
2018-03-19T23:45:56.856Z,2.21
2018-03-19T23:48:25.943Z,2.15
2018-03-19T23:50:56.062Z,2.05
2018-03-19T23:53:25.930Z,1.89
2018-03-19T23:55:55.051Z,1.91
2018-03-19T23:58:24.173Z,1.89
